Aeroporto :
LOGIN :

Iscrizione | Disclaimer

   EN    FR    IT 

 










Sommario :    VFR   VFR Marginale   IFR   IFR Intensivo   IFR Molto Intensivo
Visibilità : 
Base nubi : 
>= 8 km
>= 3000ft
5 / 8 km
1000 / 3000 ft
1500m / 5 km
500 / 1000 ft
800 / 1500m
200 / 500 ft
< 800m
< 200 ft
Simboli :   Temporali  Nebbia  Neve Forte  Precipitazioni Forti  Vento > 20 kt
SIGMETs :   Varie  Temporali  Ghiacco  Turbolenza  Onda orograficha  Ceneri Vulcaniche






- Altitudine del aeroporto : 24 ft
- Codice IATA : SGD


EKSB - Sonderborg

ULTIMO METAR :
  • 201820Z AUTO 11004KT 090V150 2500NDV BR FEW012/// FEW013/// BKN170/// 11/10 Q1013

METARs OBSOLETI :
  • 201750Z 03003KT 2700 BR BKN010 11/10 Q1013
  • 201720Z 12004KT 100V170 3000 BR BKN010 11/10 Q1012
  • 201650Z 11005KT 3500 BR SCT010 11/10 Q1012
  • 201620Z 10002KT 4500 BR BKN010 11/10 Q1011
  • 201550Z 11003KT 6000 FEW010 12/10 Q1011

TAF AMD TAF EKSB
Valido dal 20 a 18 ore il 20 a 19 ore UTC


201754Z 2018/2019 VRB02KT 4000 BR SCT010
TEMPO 2018/2019 2000 BKN008



MetMap, La meteo Aeronautica in un colpo d'occhio ! - Copyright ORBIFLY Dicembre 2007 - Disclaimer

ORBIFLY MET'MAP TEAM :

Programmazione e sviluppo : Alexandra Zaïnal
Concezione e sviluppo : Baudouin d'Aumeries
Co-Programmazione e sviluppo : Marc-Olivier Méhu
Supporto tecnico e logistico : Manuel Goepfert
Aiuto per la traduzione : Arnaldo La Scala

Contatto : metmap@orbifly.com




FONTI E CREDITI :

   NOAA